createdAt,value
2023-03-22T00:01:31.000Z,73.75
2023-03-22T00:03:57.808Z,74.54
2023-03-22T00:06:25.254Z,73.91
2023-03-22T00:08:53.468Z,74.25
2023-03-22T00:11:22.609Z,74.57
2023-03-22T00:13:52.521Z,73.61
2023-03-22T00:16:20.105Z,73.83
2023-03-22T00:18:46.956Z,74.03
2023-03-22T00:21:15.843Z,74.16
2023-03-22T00:23:42.904Z,73.25
2023-03-22T00:26:11.467Z,74.44
2023-03-22T00:28:39.339Z,74.27
2023-03-22T00:31:07.097Z,73.77
2023-03-22T00:33:33.980Z,74.13
2023-03-22T00:36:03.779Z,73.92
2023-03-22T00:38:42.572Z,73.98
2023-03-22T00:41:18.767Z,73.95
2023-03-22T00:43:46.954Z,75.60
2023-03-22T00:46:15.001Z,77.05
2023-03-22T00:48:43.897Z,79.67
2023-03-22T00:51:10.944Z,80.45
2023-03-22T00:53:41.230Z,79.72
2023-03-22T00:56:10.712Z,79.73
2023-03-22T00:58:44.158Z,79.94
2023-03-22T01:01:14.067Z,79.26
2023-03-22T01:03:42.544Z,79.92
2023-03-22T01:06:10.599Z,79.67
2023-03-22T01:08:39.157Z,78.58
2023-03-22T01:11:07.404Z,78.94
2023-03-22T01:13:37.765Z,78.05
2023-03-22T01:16:06.302Z,80.99
2023-03-22T01:18:34.192Z,82.29
2023-03-22T01:21:01.138Z,81.65
2023-03-22T01:23:28.325Z,80.64
2023-03-22T01:25:55.114Z,80.55
2023-03-22T01:28:21.817Z,79.97
2023-03-22T01:30:48.747Z,80.19
2023-03-22T01:33:15.647Z,80.37
2023-03-22T01:35:42.349Z,80.56
2023-03-22T01:38:10.127Z,79.73
2023-03-22T01:40:43.633Z,79.12
2023-03-22T01:43:14.508Z,78.97
2023-03-22T01:45:51.564Z,79.46
2023-03-22T01:48:34.140Z,79.92
2023-03-22T01:51:13.923Z,79.72
2023-03-22T01:54:07.570Z,79.53
2023-03-22T01:56:39.305Z,78.81
2023-03-22T01:59:13.015Z,78.18
2023-03-22T02:02:00.312Z,77.71
2023-03-22T02:04:34.141Z,77.23
2023-03-22T02:07:10.443Z,76.98
2023-03-22T02:09:41.406Z,76.38
2023-03-22T02:12:41.538Z,75.58
2023-03-22T02:15:26.543Z,76.16
2023-03-22T02:18:34.465Z,75.63
2023-03-22T02:21:30.508Z,75.79
2023-03-22T02:24:23.562Z,75.68
2023-03-22T02:27:37.811Z,75.54
2023-03-22T02:30:25.103Z,75.46
2023-03-22T02:33:13.399Z,75.42
2023-03-22T02:36:00.282Z,75.26
2023-03-22T02:39:00.587Z,75.27
2023-03-22T02:42:04.705Z,74.56
2023-03-22T02:44:39.291Z,76.08
2023-03-22T02:47:28.972Z,75.47
2023-03-22T02:50:07.938Z,76.24
2023-03-22T02:53:03.869Z,76.85
2023-03-22T02:55:37.894Z,77.50
2023-03-22T02:58:17.716Z,79.21
2023-03-22T03:00:47.800Z,79.09
2023-03-22T03:03:18.207Z,78.98
2023-03-22T03:05:50.903Z,78.03
2023-03-22T03:08:20.616Z,77.39
2023-03-22T03:10:48.291Z,78.15
2023-03-22T03:13:18.144Z,81.55
2023-03-22T03:15:49.942Z,82.43
2023-03-22T03:18:22.364Z,82.45
2023-03-22T03:21:23.425Z,82.88
2023-03-22T03:24:03.041Z,81.93
2023-03-22T03:26:47.282Z,81.00
2023-03-22T03:29:31.852Z,80.29
2023-03-22T03:32:04.669Z,79.20
2023-03-22T03:34:49.567Z,78.71
2023-03-22T03:37:21.992Z,78.33
2023-03-22T03:39:55.377Z,77.68
2023-03-22T03:42:25.740Z,77.14
2023-03-22T03:44:52.418Z,77.35
2023-03-22T03:47:19.484Z,76.44
2023-03-22T03:49:46.217Z,76.65
2023-03-22T03:52:13.407Z,75.86
2023-03-22T03:54:41.155Z,76.03
2023-03-22T03:57:13.002Z,76.08
2023-03-22T03:59:39.660Z,76.00
2023-03-22T04:02:14.044Z,75.44
2023-03-22T04:04:40.889Z,75.71
2023-03-22T04:07:08.325Z,75.15
2023-03-22T04:09:38.811Z,75.27
2023-03-22T04:12:19.923Z,74.72
2023-03-22T04:15:07.147Z,75.00
2023-03-22T04:17:34.456Z,75.74
2023-03-22T04:20:05.839Z,75.59
2023-03-22T04:22:35.078Z,75.25
2023-03-22T04:25:02.330Z,75.95
2023-03-22T04:27:29.279Z,75.45
2023-03-22T04:30:11.116Z,75.25
2023-03-22T04:32:57.727Z,75.10
2023-03-22T04:35:36.417Z,75.03
2023-03-22T04:38:03.480Z,74.93
2023-03-22T04:40:36.456Z,75.24
2023-03-22T04:43:09.781Z,75.18
2023-03-22T04:45:55.051Z,75.73
2023-03-22T04:48:28.033Z,76.17
2023-03-22T04:50:56.356Z,75.31
2023-03-22T04:53:27.378Z,75.19
2023-03-22T04:55:58.597Z,75.82
2023-03-22T04:58:27.138Z,74.65
2023-03-22T05:00:54.230Z,76.86
2023-03-22T05:03:22.502Z,77.05
2023-03-22T05:05:53.432Z,77.05
2023-03-22T05:08:24.940Z,76.94
2023-03-22T05:10:53.632Z,77.13
2023-03-22T05:13:21.581Z,76.16
2023-03-22T05:15:51.907Z,76.08
2023-03-22T05:18:26.312Z,75.08
2023-03-22T05:20:55.891Z,75.37
2023-03-22T05:23:24.556Z,75.52
2023-03-22T05:25:54.983Z,75.25
2023-03-22T05:28:22.509Z,76.14
2023-03-22T05:31:03.301Z,75.69
2023-03-22T05:33:39.281Z,75.81
2023-03-22T05:36:09.125Z,75.30
2023-03-22T05:38:44.728Z,74.87
2023-03-22T05:41:13.145Z,75.20
2023-03-22T05:43:41.321Z,74.88
2023-03-22T05:46:11.896Z,74.98
2023-03-22T05:48:50.630Z,75.11
2023-03-22T05:51:19.738Z,74.76
2023-03-22T05:53:49.989Z,75.06
2023-03-22T05:56:24.363Z,75.94
2023-03-22T05:58:54.687Z,76.75
2023-03-22T06:01:23.189Z,77.13
2023-03-22T06:04:08.347Z,76.41
2023-03-22T06:06:47.106Z,76.53
2023-03-22T06:09:29.382Z,75.55
2023-03-22T06:11:56.159Z,75.83
2023-03-22T06:14:26.425Z,75.71
2023-03-22T06:17:22.624Z,75.66
2023-03-22T06:19:52.627Z,75.35
2023-03-22T06:22:20.278Z,75.24
2023-03-22T06:24:48.277Z,75.70
2023-03-22T06:27:20.375Z,75.43
2023-03-22T06:29:50.904Z,75.95
2023-03-22T06:32:23.583Z,76.17
2023-03-22T06:34:51.119Z,76.24
2023-03-22T06:37:19.578Z,76.19
2023-03-22T06:39:47.517Z,76.03
2023-03-22T06:42:14.261Z,76.18
2023-03-22T06:44:44.739Z,75.79
2023-03-22T06:47:21.157Z,76.44
2023-03-22T06:50:04.499Z,77.29
2023-03-22T06:52:57.125Z,77.21
2023-03-22T06:55:24.224Z,77.66
2023-03-22T06:57:50.950Z,77.64
2023-03-22T07:00:17.993Z,79.04
2023-03-22T07:02:44.594Z,78.86
2023-03-22T07:05:19.973Z,78.12
2023-03-22T07:07:46.803Z,78.79
2023-03-22T07:10:13.494Z,78.07
2023-03-22T07:12:40.675Z,77.98
2023-03-22T07:15:11.738Z,77.36
2023-03-22T07:17:48.261Z,77.04
2023-03-22T07:20:15.382Z,77.94
2023-03-22T07:22:41.956Z,77.14
2023-03-22T07:25:09.180Z,77.42
2023-03-22T07:27:36.398Z,79.21
2023-03-22T07:30:04.828Z,80.42
2023-03-22T07:32:35.051Z,80.11
2023-03-22T07:35:05.915Z,79.72
2023-03-22T07:37:32.813Z,78.60
2023-03-22T07:39:59.987Z,78.64
2023-03-22T07:42:31.297Z,77.46
2023-03-22T07:45:18.013Z,77.18
2023-03-22T07:48:04.822Z,76.95
2023-03-22T07:50:56.477Z,76.30
2023-03-22T07:53:24.967Z,76.85
2023-03-22T07:55:51.609Z,76.86
2023-03-22T07:58:18.189Z,77.15
2023-03-22T08:00:44.944Z,77.02
2023-03-22T08:03:31.592Z,77.70
2023-03-22T08:06:06.943Z,77.84
2023-03-22T08:08:36.896Z,77.63
2023-03-22T08:11:08.236Z,77.32
2023-03-22T08:13:35.034Z,76.86
2023-03-22T08:16:01.931Z,76.97
2023-03-22T08:18:30.549Z,77.56
2023-03-22T08:20:58.986Z,77.13
2023-03-22T08:23:40.901Z,76.96
2023-03-22T08:26:32.598Z,76.81
2023-03-22T08:29:11.093Z,76.75
2023-03-22T08:31:37.989Z,76.31
2023-03-22T08:34:04.571Z,76.40
2023-03-22T08:36:31.306Z,76.42
2023-03-22T08:39:02.060Z,76.54
2023-03-22T08:41:39.986Z,77.10
2023-03-22T08:44:06.972Z,76.49
2023-03-22T08:46:35.246Z,76.38
2023-03-22T08:49:03.362Z,76.44
2023-03-22T08:51:41.049Z,76.16
2023-03-22T08:54:28.129Z,76.26
2023-03-22T08:57:22.140Z,76.31
2023-03-22T08:59:57.768Z,75.70
2023-03-22T09:02:32.554Z,76.02
2023-03-22T09:04:59.662Z,76.00
2023-03-22T09:07:27.396Z,76.33
2023-03-22T09:10:05.473Z,75.86
2023-03-22T09:12:35.247Z,75.81
2023-03-22T09:15:02.197Z,75.75
2023-03-22T09:17:30.661Z,75.33
2023-03-22T09:20:11.150Z,75.83
2023-03-22T09:22:40.808Z,75.36
2023-03-22T09:25:12.068Z,75.55
2023-03-22T09:27:41.397Z,76.64
2023-03-22T09:30:08.611Z,76.41
2023-03-22T09:32:35.317Z,76.28
2023-03-22T09:35:03.876Z,75.15
2023-03-22T09:37:38.972Z,75.81
2023-03-22T09:40:07.662Z,75.79
2023-03-22T09:42:44.244Z,74.75
2023-03-22T09:45:18.690Z,75.77
2023-03-22T09:47:55.971Z,76.14
2023-03-22T09:50:29.782Z,75.77
2023-03-22T09:52:57.332Z,75.46
2023-03-22T09:55:37.572Z,76.10
2023-03-22T09:58:13.240Z,76.04
2023-03-22T10:00:48.527Z,76.92
2023-03-22T10:03:36.515Z,76.76
2023-03-22T10:06:13.990Z,76.53
2023-03-22T10:08:52.478Z,76.17
2023-03-22T10:11:46.243Z,75.68
2023-03-22T10:14:35.787Z,75.89
2023-03-22T10:17:08.610Z,75.65
2023-03-22T10:19:48.940Z,75.99
2023-03-22T10:22:19.025Z,75.92
2023-03-22T10:24:49.152Z,76.97
2023-03-22T10:27:18.953Z,75.86
2023-03-22T10:29:51.025Z,76.03
2023-03-22T10:32:22.424Z,76.44
2023-03-22T10:34:49.495Z,75.89
2023-03-22T10:37:33.695Z,75.99
2023-03-22T10:40:07.945Z,76.07
2023-03-22T10:42:38.551Z,76.58
2023-03-22T10:45:15.968Z,77.06
2023-03-22T10:47:49.855Z,76.90
2023-03-22T10:50:30.539Z,76.60
2023-03-22T10:53:04.048Z,76.24
2023-03-22T10:55:30.958Z,76.46
2023-03-22T10:58:14.598Z,78.30
2023-03-22T11:00:49.869Z,79.60
2023-03-22T11:03:31.793Z,78.89
2023-03-22T11:06:02.563Z,78.21
2023-03-22T11:08:29.257Z,79.43
2023-03-22T11:10:59.332Z,78.97
2023-03-22T11:13:26.147Z,78.70
2023-03-22T11:15:58.015Z,79.24
2023-03-22T11:18:29.224Z,81.42
2023-03-22T11:20:59.520Z,80.31
2023-03-22T11:23:28.457Z,82.27
2023-03-22T11:25:59.169Z,79.97
2023-03-22T11:28:28.030Z,80.00
2023-03-22T11:31:05.244Z,78.35
2023-03-22T11:33:33.293Z,79.21
2023-03-22T11:36:05.783Z,79.88
2023-03-22T11:38:40.981Z,78.96
2023-03-22T11:41:24.608Z,78.72
2023-03-22T11:43:54.662Z,81.57
2023-03-22T11:46:22.761Z,80.25
2023-03-22T11:48:52.988Z,79.19
2023-03-22T11:51:33.402Z,79.85
2023-03-22T11:54:11.184Z,78.54
2023-03-22T11:56:43.058Z,79.83
2023-03-22T11:59:14.238Z,78.84
2023-03-22T12:02:05.076Z,78.26
2023-03-22T12:04:37.730Z,78.48
2023-03-22T12:07:11.905Z,79.70
2023-03-22T12:09:49.744Z,80.95
2023-03-22T12:12:24.575Z,80.54
2023-03-22T12:15:03.509Z,80.59
2023-03-22T12:17:34.094Z,78.91
2023-03-22T12:20:07.272Z,79.86
2023-03-22T12:22:37.618Z,79.66
2023-03-22T12:25:11.608Z,78.73
2023-03-22T12:27:41.458Z,77.13
2023-03-22T12:30:21.770Z,77.94
2023-03-22T12:32:53.825Z,79.69
2023-03-22T12:35:25.257Z,80.82
2023-03-22T12:37:55.814Z,84.17
2023-03-22T12:40:31.792Z,84.80
2023-03-22T12:43:24.608Z,84.56
2023-03-22T12:45:57.890Z,82.26
2023-03-22T12:48:44.616Z,81.90
2023-03-22T12:51:14.143Z,80.88
2023-03-22T12:53:53.701Z,79.85
2023-03-22T12:56:25.691Z,79.06
2023-03-22T12:58:56.888Z,78.97
2023-03-22T13:01:33.693Z,79.44
2023-03-22T13:04:20.794Z,79.10
2023-03-22T13:06:47.792Z,78.04
2023-03-22T13:09:16.898Z,77.94
2023-03-22T13:11:49.061Z,77.72
2023-03-22T13:14:50.145Z,78.03
2023-03-22T13:17:22.520Z,77.53
2023-03-22T13:19:59.731Z,77.04
2023-03-22T13:22:27.025Z,77.39
2023-03-22T13:25:17.086Z,76.67
2023-03-22T13:28:03.283Z,77.48
2023-03-22T13:30:36.422Z,77.14
2023-03-22T13:33:08.646Z,78.43
2023-03-22T13:35:54.988Z,79.86
2023-03-22T13:38:25.486Z,79.96
2023-03-22T13:40:59.848Z,79.46
2023-03-22T13:43:46.960Z,78.97
2023-03-22T13:46:44.669Z,78.71
2023-03-22T13:49:22.046Z,80.41
2023-03-22T13:51:49.665Z,80.36
2023-03-22T13:54:21.058Z,78.91
2023-03-22T13:56:53.033Z,77.41
2023-03-22T13:59:25.480Z,77.53
2023-03-22T14:02:12.925Z,78.02
2023-03-22T14:04:47.623Z,77.80
2023-03-22T14:07:26.168Z,76.80
2023-03-22T14:10:06.623Z,77.46
2023-03-22T14:13:06.705Z,77.34
2023-03-22T14:15:40.370Z,76.87
2023-03-22T14:18:15.504Z,77.35
2023-03-22T14:20:42.629Z,77.30
